Pleasanton, KS

12:45 PM CDT on August 01, 2014 (GMT -0500)
RAWS STATE LINE KS US (MTRDK1) Elev 796 ft | 38.24 °N, 94.67 °W | Change Station

Current weather conditions updated 58 minutes ago

Clear
Clear
81 °F
Feels Like 86 °F
N
4
Wind Variable Wind from SE
Gusts 6.0 mph

Today is forecast to be nearly the same temperature as yesterday.

Today
High -- | Low -- °F
--% Chance of Precip.
Yesterday
High -- | Low -- °F
Precip. -- in
6:21 AM 8:28 PM
Waxing Crescent, 28% visible
Pressure 30.06 in
Visibility 10.0 miles
Clouds Clear
Heat Index 86 °F
Dew Point 74 °F
Humidity 79%
Rainfall 0.00 in
Snow Depth Not available.
UV 10 out of 12
Pollen 6.80 out of 12
Air Quality Not available.
Flu Activity Not available.
METAR KIXD 011653Z 14007KT 10SM CLR 27/15 A3009 RMK AO2 SLP179 T02720150

More Conditions Fewer Conditions

Pressure 30.06 in
Visibility 10.0 miles
Clouds Clear
Heat Index 86 °F
Dew Point 74 °F
Humidity 79%
Rainfall 0.00 in
Snow Depth Not available.
UV 10 out of 12
Pollen 6.80 out of 12
Air Quality Not available.
Flu Activity Not available.
METAR KIXD 011653Z 14007KT 10SM CLR 27/15 A3009 RMK AO2 SLP179 T02720150

More Conditions Fewer Conditions

10-Day Weather Forecast

Almanac

Astronomy

Aug. 01, 2014 Rise Set
Actual Time 6:21 AM CDT 8:28 PM CDT
Civil Twilight 5:52 AM CDT 8:57 PM CDT
Nautical Twilight 5:16 AM CDT 9:33 PM CDT
Astronomical Twilight 4:37 AM CDT 10:11 PM CDT
Moon 11:40 AM CDT 11:19 PM CDT
Length of Visible Light 15h 05m
Length of Day
14h 06m
Tomorrow will be 1m 53s shorter.
Waxing Crescent, 28% of the Moon is Illuminated
Today
Waxing Crescent
Aug 3
First Quarter
Aug 10
Full
Aug 17
Last Quarter
Aug 25
New

Today's Extremes

State Highs State Lows

Community

WunderPhotos

Upload Photos

1,739,636 photos uploaded!

Nearby

Snow Depth

Station Depth Elevation
No new snow has been reported.

Earthquake Activity

City Distance Mag. Time & Date
No recent earthquake activity has been reported nearby.
Minimum magnitude displayed is 2.5.

Coastal Water Temperatures

Place Temperature
No Stations Reporting

Nearby Weather Stations

Station Location Temp. Heat Index Dew Point Humidity Wind Precip. Elev Updated Type
RAWS STATE LINE KS, Prescott, KS 81 °F 86 °F 74 °F 79% SE  at  4 mph 0.00 in / hr 796 ft 11:47 AM CDT MADIS
DEAN'S WEATHER STATION, PRESCOTT, KS 82.6 °F 84 °F 64 °F 53% South  at  9.2 mph 0.00 in / hr 909 ft 12:45 PM CDT Rapid Fire
Amsterdam, MO 90.0 °F 86 °F 42 °F 19% SSE  at  6.0 mph 0.00 in / hr 906 ft 12:45 PM CDT Rapid Fire
Round Mound, Centerville, KS 81.9 °F 83 °F 63 °F 53% WSW  at  5.0 mph 0.00 in / hr 1009 ft 12:45 PM CDT Normal
Bates Co EMA, BUTLER, MO 81.2 °F 83 °F 64 °F 56% North  at  0.0 mph 0.00 in / hr 866 ft 12:45 PM CDT Rapid Fire
MesoWest BEAGLE , Osawatomie, KS 78 °F 76 °F - - North  at  - 0.00 in / hr 957 ft 11:40 AM CDT MADIS
Nurse Laura, Adrian, MO 84.6 °F 82 °F 38 °F 19% North  at  1.0 mph 0.00 in / hr 863 ft 12:44 PM CDT Normal

Show More Stations Show Fewer Stations